Time;durP1;ratioP1;P1;durP2;ratioP2;P2;SDS_P1;SDS_P2;PMS_P1;PMS_P2;Temp;Humidity;BMP_temperature;BMP_pressure;BME280_temperature;BME280_humidity;BME280_pressure;Samples;Min_cycle;Max_cycle;Signal;HPM_P1;HPM_P2
2021/03/12 00:03:13;;;;;;;0.87;0.63;;;17.60;32.50;;;;;;8419529;28;20040;-57
2021/03/12 00:07:13;;;;;;;1.02;0.75;;;17.60;32.60;;;;;;8409300;28;20063;-57
2021/03/12 00:11:15;;;;;;;1.43;0.73;;;17.60;32.50;;;;;;8391648;28;20036;-58
2021/03/12 00:15:19;;;;;;;0.98;0.80;;;17.60;32.60;;;;;;8397394;28;20370;-58
2021/03/12 00:19:19;;;;;;;1.38;0.90;;;17.60;32.50;;;;;;8392728;28;20033;-58
2021/03/12 00:23:20;;;;;;;3.13;0.80;;;17.60;32.50;;;;;;8391321;28;20020;-58
2021/03/12 00:27:20;;;;;;;0.77;0.77;;;17.60;32.50;;;;;;8392427;28;20032;-58
2021/03/12 00:31:21;;;;;;;1.80;0.77;;;17.60;32.50;;;;;;8392649;28;20033;-58
2021/03/12 00:35:22;;;;;;;0.83;0.60;;;17.60;32.50;;;;;;8394877;28;20048;-57
2021/03/12 00:39:22;;;;;;;0.97;0.87;;;17.60;32.50;;;;;;8392107;28;20044;-58
2021/03/12 00:43:23;;;;;;;2.57;0.70;;;17.60;32.50;;;;;;8392049;28;20388;-57
2021/03/12 00:47:24;;;;;;;0.95;0.68;;;17.60;32.50;;;;;;8390047;28;20044;-57
2021/03/12 00:51:24;;;;;;;1.03;0.73;;;17.60;32.50;;;;;;8396426;28;20505;-58
2021/03/12 00:55:25;;;;;;;2.17;0.80;;;17.60;32.50;;;;;;8391336;28;20044;-57
2021/03/12 00:59:25;;;;;;;0.93;0.60;;;17.60;32.80;;;;;;8390469;28;20036;-58
2021/03/12 01:03:26;;;;;;;0.97;0.67;;;17.60;32.50;;;;;;8391944;28;20039;-58
2021/03/12 01:07:27;;;;;;;0.80;0.63;;;17.60;32.50;;;;;;8395959;28;20037;-57
2021/03/12 01:11:27;;;;;;;1.90;0.73;;;17.60;32.50;;;;;;8389890;28;20455;-57
2021/03/12 01:15:28;;;;;;;1.03;0.67;;;17.60;32.50;;;;;;8391733;28;20501;-58
2021/03/12 01:19:28;;;;;;;1.07;0.70;;;17.60;32.50;;;;;;8403599;28;20028;-57
2021/03/12 01:23:29;;;;;;;0.63;0.63;;;17.60;32.50;;;;;;8419513;28;20039;-57
2021/03/12 01:27:38;;;;;;;1.60;0.40;;;17.60;32.50;;;;;;8395478;28;20507;-56
2021/03/12 01:31:38;;;;;;;1.02;0.80;;;17.60;32.50;;;;;;8390979;28;20051;-57
2021/03/12 01:35:39;;;;;;;0.73;0.60;;;17.60;32.50;;;;;;8389139;28;20489;-58
2021/03/12 01:39:39;;;;;;;1.43;0.90;;;17.60;32.50;;;;;;8390818;28;20041;-58
2021/03/12 01:43:40;;;;;;;0.73;0.60;;;17.60;32.50;;;;;;8393601;28;20024;-56
2021/03/12 01:47:42;;;;;;;1.30;0.80;;;17.60;32.50;;;;;;8391063;28;20405;-59
2021/03/12 01:51:43;;;;;;;1.27;0.60;;;17.60;32.40;;;;;;8391121;28;20040;-58
2021/03/12 01:55:44;;;;;;;0.73;0.50;;;17.60;32.50;;;;;;8388759;28;20075;-58
2021/03/12 01:59:44;;;;;;;1.33;0.67;;;17.60;32.40;;;;;;8390671;28;20032;-59
2021/03/12 02:03:45;;;;;;;0.93;0.73;;;17.60;32.50;;;;;;8394910;28;20382;-58
2021/03/12 02:07:46;;;;;;;0.97;0.50;;;17.50;32.30;;;;;;8388596;28;20067;-58
2021/03/12 02:12:11;;;;;;;0.77;0.60;;;17.60;32.40;;;;;;8390544;28;20145;-58
2021/03/12 02:16:24;;;;;;;0.70;0.60;;;17.50;32.40;;;;;;8390552;28;20040;-58
2021/03/12 02:20:38;;;;;;;0.77;0.50;;;17.50;32.30;;;;;;8391979;28;20139;-58
2021/03/12 02:24:56;;;;;;;0.82;0.60;;;17.50;32.30;;;;;;8361420;28;20037;-58
2021/03/12 02:29:02;;;;;;;0.90;0.73;;;17.50;32.30;;;;;;8383060;28;20493;-58
2021/03/12 02:33:04;;;;;;;0.50;0.50;;;17.50;32.30;;;;;;8393105;28;20048;-58
2021/03/12 02:37:06;;;;;;;1.13;0.65;;;17.60;32.30;;;;;;8395963;28;20024;-58
2021/03/12 02:41:08;;;;;;;1.67;0.60;;;17.50;32.20;;;;;;8398800;28;20055;-58
2021/03/12 02:45:11;;;;;;;0.93;0.60;;;17.50;32.20;;;;;;8396387;28;20195;-58
2021/03/12 02:49:12;;;;;;;0.82;0.63;;;17.50;32.80;;;;;;8395511;28;20087;-58
2021/03/12 02:53:13;;;;;;;1.83;0.57;;;17.50;32.30;;;;;;8394250;28;20489;-58
2021/03/12 02:57:17;;;;;;;1.53;0.70;;;17.50;32.20;;;;;;8395256;28;20119;-58
2021/03/12 03:01:20;;;;;;;1.13;0.50;;;17.50;32.10;;;;;;8399944;28;20036;-58
2021/03/12 03:05:21;;;;;;;0.68;0.57;;;17.50;32.10;;;;;;8393981;28;20400;-58
2021/03/12 03:09:23;;;;;;;;;;;17.50;32.20;;;;;;8395205;28;20521;-58
2021/03/12 03:13:38;;;;;;;0.90;0.60;;;17.50;32.20;;;;;;8394869;28;19931;-58
2021/03/12 03:17:40;;;;;;;1.65;0.50;;;17.50;32.20;;;;;;8395163;28;20375;-58
2021/03/12 03:21:45;;;;;;;1.05;0.60;;;17.50;32.20;;;;;;8397647;28;20063;-58
2021/03/12 03:25:46;;;;;;;1.17;0.70;;;17.50;32.20;;;;;;8393283;28;20060;-58
2021/03/12 03:29:46;;;;;;;0.90;0.50;;;17.50;32.20;;;;;;8395023;28;20036;-58
2021/03/12 03:33:47;;;;;;;1.13;0.60;;;17.50;32.20;;;;;;8394184;28;20127;-58
2021/03/12 03:37:47;;;;;;;0.80;0.80;;;17.50;32.30;;;;;;8396944;28;20031;-58
2021/03/12 03:41:52;;;;;;;1.73;0.80;;;17.50;32.30;;;;;;8393961;28;20547;-58
2021/03/12 03:46:01;;;;;;;0.65;0.45;;;17.50;32.30;;;;;;8393378;28;20085;-58
2021/03/12 03:50:04;;;;;;;1.65;0.68;;;17.50;32.80;;;;;;8392296;28;20071;-58
2021/03/12 03:54:06;;;;;;;1.60;0.60;;;17.50;32.20;;;;;;8395387;28;20044;-58
2021/03/12 03:58:07;;;;;;;1.00;0.70;;;17.50;32.30;;;;;;8396970;28;20040;-58
2021/03/12 04:02:15;;;;;;;1.33;0.93;;;17.50;32.30;;;;;;8415083;28;20029;-59
2021/03/12 04:06:15;;;;;;;0.93;0.47;;;17.50;32.30;;;;;;8411354;28;20394;-58
2021/03/12 04:10:17;;;;;;;1.23;0.50;;;17.50;32.20;;;;;;8393122;28;20043;-58
2021/03/12 04:14:18;;;;;;;0.80;0.50;;;17.50;32.30;;;;;;8396010;28;20127;-58
2021/03/12 04:18:19;;;;;;;0.93;0.73;;;17.50;32.30;;;;;;8392841;28;20043;-58
2021/03/12 04:22:20;;;;;;;0.73;0.50;;;17.50;32.40;;;;;;8411050;28;20580;-58
2021/03/12 04:26:21;;;;;;;0.80;0.60;;;17.50;32.20;;;;;;8414903;28;20036;-58
2021/03/12 04:30:22;;;;;;;1.27;0.70;;;17.50;32.10;;;;;;8396835;28;20076;-58
2021/03/12 04:34:24;;;;;;;0.47;0.45;;;17.50;32.00;;;;;;8392722;28;20102;-58
2021/03/12 04:38:25;;;;;;;0.75;0.50;;;17.50;31.90;;;;;;8390489;28;20182;-58
2021/03/12 04:42:26;;;;;;;1.35;0.60;;;17.50;31.90;;;;;;8391966;28;20043;-58
2021/03/12 04:46:27;;;;;;;1.13;0.70;;;17.50;31.90;;;;;;8392265;28;20359;-58
2021/03/12 04:50:29;;;;;;;0.75;0.60;;;17.60;31.90;;;;;;8394502;28;20094;-58
2021/03/12 04:54:29;;;;;;;0.63;0.50;;;17.50;31.90;;;;;;8391112;28;20052;-58
2021/03/12 04:58:31;;;;;;;0.93;0.60;;;17.60;32.00;;;;;;8391111;28;20394;-58
2021/03/12 05:02:33;;;;;;;2.22;1.00;;;17.50;31.90;;;;;;8388634;28;20085;-58
2021/03/12 05:06:36;;;;;;;0.75;0.57;;;17.60;32.00;;;;;;8395810;28;20123;-58
2021/03/12 05:10:36;;;;;;;1.08;0.68;;;17.60;32.00;;;;;;8391438;28;20037;-58
2021/03/12 05:14:37;;;;;;;1.23;0.63;;;17.60;32.00;;;;;;8389620;28;20136;-58
2021/03/12 05:18:37;;;;;;;3.80;0.60;;;17.60;32.00;;;;;;8391050;28;20036;-58
2021/03/12 05:22:38;;;;;;;0.57;0.47;;;17.50;32.20;;;;;;8391026;28;20043;-58
2021/03/12 05:26:38;;;;;;;1.40;0.60;;;17.50;32.20;;;;;;8393796;28;20058;-58
2021/03/12 05:30:39;;;;;;;2.70;0.60;;;17.50;32.20;;;;;;8391079;28;20036;-58
2021/03/12 05:34:40;;;;;;;2.37;1.23;;;17.50;32.30;;;;;;8389108;28;20072;-55
2021/03/12 05:38:40;;;;;;;1.13;0.50;;;17.50;32.30;;;;;;8391405;28;20037;-58
2021/03/12 05:42:43;;;;;;;0.53;0.50;;;17.50;32.30;;;;;;8395287;28;20037;-58
2021/03/12 05:46:44;;;;;;;1.77;0.70;;;17.50;32.30;;;;;;8388903;28;20036;-58
2021/03/12 05:50:45;;;;;;;0.95;0.40;;;17.50;32.30;;;;;;8390806;28;20443;-58
2021/03/12 05:54:46;;;;;;;1.50;0.80;;;17.50;32.30;;;;;;8398719;28;20044;-58
2021/03/12 05:58:47;;;;;;;0.63;0.53;;;17.40;32.30;;;;;;8426973;28;20102;-58
2021/03/12 06:02:47;;;;;;;0.50;0.50;;;17.40;32.30;;;;;;8390791;28;20032;-58
2021/03/12 06:06:48;;;;;;;0.60;0.50;;;17.40;32.30;;;;;;8391658;28;20187;-58
2021/03/12 06:10:50;;;;;;;1.10;0.57;;;17.40;32.30;;;;;;8395288;28;20059;-57
2021/03/12 06:14:54;;;;;;;1.50;0.75;;;17.40;32.30;;;;;;8396454;28;20133;-58
2021/03/12 06:19:17;;;;;;;1.80;0.60;;;17.40;32.30;;;;;;8400998;28;20120;-57
2021/03/12 06:23:37;;;;;;;1.27;0.95;;;17.40;32.20;;;;;;8394690;28;20108;-57
2021/03/12 06:27:38;;;;;;;1.15;0.70;;;17.40;32.20;;;;;;8396113;28;20052;-58
2021/03/12 06:31:38;;;;;;;1.75;0.70;;;17.40;32.20;;;;;;8396515;28;20045;-58
2021/03/12 06:35:39;;;;;;;1.23;0.60;;;17.50;32.10;;;;;;8394537;28;20139;-58
2021/03/12 06:39:40;;;;;;;1.30;0.67;;;17.60;31.90;;;;;;8400659;28;20398;-57
2021/03/12 06:43:41;;;;;;;1.23;0.70;;;17.80;31.50;;;;;;8394055;28;20090;-56
2021/03/12 06:47:41;;;;;;;1.67;0.67;;;17.90;31.30;;;;;;8395468;28;20112;-57
2021/03/12 06:52:03;;;;;;;2.13;0.70;;;17.90;31.20;;;;;;8401680;28;20040;-58
2021/03/12 06:56:09;;;;;;;1.48;0.68;;;17.90;31.30;;;;;;8431978;28;20060;-57
2021/03/12 07:00:10;;;;;;;0.55;0.50;;;17.80;31.30;;;;;;8398844;28;20060;-57
2021/03/12 07:04:15;;;;;;;1.95;0.50;;;17.80;31.40;;;;;;8395177;28;20086;-57
2021/03/12 07:08:29;;;;;;;1.95;0.70;;;17.70;31.50;;;;;;8393379;28;20044;-57
2021/03/12 07:12:51;;;;;;;1.42;0.73;;;17.60;31.70;;;;;;8394497;28;20047;-57
2021/03/12 07:16:52;;;;;;;1.27;0.75;;;17.60;31.80;;;;;;8397689;28;20394;-57
2021/03/12 07:20:53;;;;;;;0.98;0.50;;;17.50;31.90;;;;;;8394926;28;20039;-57
2021/03/12 07:24:54;;;;;;;1.37;0.60;;;17.50;31.90;;;;;;8394692;28;20497;-57
2021/03/12 07:29:00;;;;;;;4.05;0.90;;;17.50;31.90;;;;;;8392753;28;20032;-57
2021/03/12 07:33:01;;;;;;;0.80;0.50;;;17.50;32.00;;;;;;8394323;28;20056;-57
2021/03/12 07:37:05;;;;;;;0.97;0.43;;;17.50;31.90;;;;;;8398926;28;20053;-57
2021/03/12 07:41:07;;;;;;;0.82;0.57;;;17.60;31.80;;;;;;8392226;28;20444;-57
2021/03/12 07:45:11;;;;;;;0.85;0.50;;;17.60;31.80;;;;;;8394321;28;20546;-57
2021/03/12 07:49:32;;;;;;;0.50;0.45;;;17.60;31.80;;;;;;8394080;28;20040;-57
2021/03/12 07:53:53;;;;;;;1.42;0.60;;;17.50;31.80;;;;;;8391814;28;20548;-57
2021/03/12 07:57:54;;;;;;;1.30;0.50;;;17.50;31.80;;;;;;8398265;28;20532;-57
2021/03/12 08:01:55;;;;;;;1.83;0.70;;;17.50;31.90;;;;;;8391717;28;20071;-57
2021/03/12 08:05:56;;;;;;;1.42;0.75;;;17.50;31.90;;;;;;8393130;28;20052;-57
2021/03/12 08:10:15;;;;;;;3.28;0.80;;;17.50;31.80;;;;;;8393062;28;20060;-57
2021/03/12 08:14:18;;;;;;;2.42;0.60;;;17.50;31.80;;;;;;8391156;28;20406;-57
2021/03/12 08:18:19;;;;;;;2.28;0.50;;;17.50;31.80;;;;;;8397061;28;20097;-57
2021/03/12 08:22:28;;;;;;;0.70;0.40;;;17.50;31.90;;;;;;8392826;28;20043;-57
2021/03/12 08:26:52;;;;;;;1.13;0.68;;;17.50;31.80;;;;;;8390900;28;20082;-57
2021/03/12 08:30:54;;;;;;;3.13;0.70;;;17.50;31.90;;;;;;8392732;28;20033;-57
2021/03/12 08:34:55;;;;;;;0.60;0.50;;;17.50;31.90;;;;;;8392621;28;20094;-57
2021/03/12 08:38:55;;;;;;;1.50;0.80;;;17.40;31.90;;;;;;8394560;28;20043;-57
2021/03/12 08:43:08;;;;;;;1.53;0.60;;;17.40;31.90;;;;;;8392071;28;20105;-57
2021/03/12 08:47:09;;;;;;;1.20;0.63;;;17.50;32.00;;;;;;8404857;28;20121;-57
2021/03/12 08:51:14;;;;;;;0.83;0.50;;;17.50;32.00;;;;;;8419647;28;20048;-57
2021/03/12 08:55:15;;;;;;;0.98;0.52;;;17.40;31.90;;;;;;8396125;28;20079;-58
2021/03/12 08:59:15;;;;;;;0.45;0.45;;;17.40;31.90;;;;;;8390741;28;20036;-57
2021/03/12 09:03:17;;;;;;;1.17;0.80;;;17.50;31.90;;;;;;8410408;28;20040;-57
2021/03/12 09:07:17;;;;;;;;;;;17.40;31.90;;;;;;8415575;28;20081;-58
2021/03/12 09:11:21;;;;;;;0.73;0.50;;;17.50;31.90;;;;;;8393081;28;19920;-57
2021/03/12 09:15:25;;;;;;;2.30;0.70;;;17.50;32.00;;;;;;8394070;28;20455;-56
2021/03/12 09:19:27;;;;;;;1.48;0.80;;;17.50;32.00;;;;;;8390949;28;20091;-57
2021/03/12 09:23:44;;;;;;;1.73;0.75;;;17.50;32.00;;;;;;8389761;28;20044;-58
2021/03/12 09:28:01;;;;;;;2.85;0.80;;;17.50;31.90;;;;;;8391011;28;20028;-57
2021/03/12 09:32:01;;;;;;;1.85;0.70;;;17.50;32.00;;;;;;8393960;28;20036;-57
2021/03/12 09:36:05;;;;;;;1.37;0.73;;;17.50;31.90;;;;;;8390558;28;20091;-58
2021/03/12 09:40:06;;;;;;;0.85;0.60;;;17.50;31.90;;;;;;8413310;28;20063;-58
2021/03/12 09:44:06;;;;;;;1.63;0.60;;;17.50;31.90;;;;;;8418628;28;20035;-58
2021/03/12 09:48:07;;;;;;;1.23;0.87;;;17.50;31.90;;;;;;8401804;28;20119;-58
2021/03/12 09:52:09;;;;;;;1.70;0.83;;;17.50;31.80;;;;;;8406201;28;20040;-58
2021/03/12 09:56:09;;;;;;;;;;;17.50;31.90;;;;;;8426582;28;20440;-58
2021/03/12 10:00:12;;;;;;;2.40;0.80;;;17.60;31.90;;;;;;8418170;28;20003;-57
2021/03/12 10:04:22;;;;;;;1.65;0.70;;;17.60;31.80;;;;;;8401804;28;20394;-57
2021/03/12 10:08:23;;;;;;;1.33;0.90;;;17.60;31.90;;;;;;8404066;28;20044;-57
2021/03/12 10:12:26;;;;;;;1.10;0.70;;;17.60;31.80;;;;;;8401403;28;20089;-58
2021/03/12 10:16:26;;;;;;;2.38;0.90;;;17.60;31.80;;;;;;8401408;28;20144;-57
2021/03/12 10:20:32;;;;;;;3.83;0.90;;;17.60;31.70;;;;;;8399785;28;20029;-57
2021/03/12 10:24:32;;;;;;;0.93;0.60;;;17.70;31.80;;;;;;8403952;28;23173;-58
2021/03/12 10:28:33;;;;;;;3.63;0.90;;;17.70;31.70;;;;;;8439015;28;20369;-58
2021/03/12 10:32:48;;;;;;;0.80;0.60;;;17.70;31.70;;;;;;8405358;28;20037;-58
2021/03/12 10:37:10;;;;;;;1.35;0.70;;;17.70;31.70;;;;;;8400885;28;20124;-58
2021/03/12 10:41:19;;;;;;;2.22;0.88;;;17.70;31.60;;;;;;8411315;28;20085;-57
2021/03/12 10:45:29;;;;;;;1.25;0.60;;;17.80;31.60;;;;;;8431763;28;20127;-57
2021/03/12 10:49:31;;;;;;;1.40;0.70;;;17.70;31.50;;;;;;8405263;28;20111;-58
2021/03/12 10:53:49;;;;;;;1.15;0.95;;;17.80;31.40;;;;;;8397056;28;20493;-58
2021/03/12 10:57:50;;;;;;;2.22;0.80;;;17.80;31.30;;;;;;8395602;28;20515;-58
2021/03/12 11:01:50;;;;;;;1.60;0.70;;;17.80;31.30;;;;;;8394072;28;20033;-58
2021/03/12 11:05:51;;;;;;;2.40;1.00;;;17.80;31.30;;;;;;8395329;28;20035;-58
2021/03/12 11:09:51;;;;;;;1.27;0.60;;;17.80;31.30;;;;;;8399621;28;20036;-58
2021/03/12 11:13:52;;;;;;;1.07;0.60;;;17.80;31.30;;;;;;8392807;28;20044;-58
2021/03/12 11:17:53;;;;;;;2.17;0.60;;;17.80;31.30;;;;;;8395216;28;20037;-58
2021/03/12 11:21:53;;;;;;;0.97;0.73;;;17.90;31.30;;;;;;8394464;28;20029;-57
2021/03/12 11:25:55;;;;;;;2.63;0.70;;;17.80;31.30;;;;;;8397224;28;20041;-57
2021/03/12 11:29:55;;;;;;;2.00;0.73;;;17.90;31.20;;;;;;8394405;28;20129;-58
2021/03/12 11:33:56;;;;;;;3.97;1.00;;;17.90;31.20;;;;;;8394333;28;20036;-57
2021/03/12 11:37:57;;;;;;;1.33;0.60;;;17.90;31.30;;;;;;8400701;28;20120;-57
2021/03/12 11:41:58;;;;;;;1.63;0.88;;;17.90;31.20;;;;;;8431914;28;20115;-57
2021/03/12 11:45:59;;;;;;;2.17;0.70;;;17.90;31.20;;;;;;8395393;28;20055;-57
2021/03/12 11:49:59;;;;;;;1.33;0.73;;;17.90;31.10;;;;;;8392196;28;20040;-57
2021/03/12 11:54:00;;;;;;;1.27;0.87;;;17.90;31.00;;;;;;8393609;28;20090;-58
2021/03/12 11:58:00;;;;;;;1.43;0.83;;;17.90;31.20;;;;;;8393632;28;20512;-57
2021/03/12 12:02:02;;;;;;;4.03;0.80;;;17.90;31.20;;;;;;8396344;28;20551;-57
2021/03/12 12:06:03;;;;;;;;;;;17.90;31.30;;;;;;8418613;28;20064;-57
2021/03/12 12:10:05;;;;;;;1.20;0.82;;;17.90;31.20;;;;;;8410957;28;20353;-57
2021/03/12 12:14:06;;;;;;;3.58;0.95;;;17.90;31.20;;;;;;8391134;28;20135;-57
2021/03/12 12:18:10;;;;;;;1.20;0.70;;;17.90;31.30;;;;;;8397317;28;20078;-57
2021/03/12 12:22:11;;;;;;;1.02;0.65;;;17.90;31.30;;;;;;8392603;28;20393;-57
2021/03/12 12:26:12;;;;;;;2.43;0.70;;;17.90;31.30;;;;;;8391458;28;20037;-57
2021/03/12 12:30:13;;;;;;;1.83;0.70;;;17.90;31.30;;;;;;8392459;28;20275;-57
2021/03/12 12:34:14;;;;;;;2.72;0.95;;;17.90;31.20;;;;;;8393321;28;20059;-58
2021/03/12 12:38:14;;;;;;;2.40;0.70;;;17.90;31.30;;;;;;8362007;28;20029;-57
2021/03/12 12:42:15;;;;;;;1.80;0.93;;;18.00;31.20;;;;;;8383178;28;20032;-58
2021/03/12 12:46:16;;;;;;;0.87;0.60;;;18.00;31.20;;;;;;8405944;28;20043;-57
2021/03/12 12:50:18;;;;;;;3.75;0.80;;;18.00;31.20;;;;;;8419198;28;20036;-57
2021/03/12 12:54:18;;;;;;;2.13;0.60;;;18.00;31.10;;;;;;8396479;28;20409;-58
2021/03/12 12:58:19;;;;;;;0.80;0.40;;;18.00;31.10;;;;;;8407865;28;20772;-57
2021/03/12 13:02:19;;;;;;;1.23;0.50;;;18.00;31.20;;;;;;8390074;28;20048;-57
2021/03/12 13:06:20;;;;;;;1.50;0.57;;;18.00;31.20;;;;;;8392231;28;20078;-56
2021/03/12 13:10:20;;;;;;;2.17;0.70;;;18.00;31.20;;;;;;8396128;28;20048;-57
2021/03/12 13:14:21;;;;;;;1.67;0.77;;;18.00;31.10;;;;;;8389799;28;20044;-57
2021/03/12 13:18:24;;;;;;;1.50;0.80;;;18.00;31.20;;;;;;8411283;28;20389;-58
2021/03/12 13:22:25;;;;;;;1.35;0.55;;;18.00;31.20;;;;;;8412641;28;20036;-57
2021/03/12 13:26:25;;;;;;;3.90;0.77;;;18.00;31.20;;;;;;8390861;28;20495;-57
2021/03/12 13:30:26;;;;;;;1.30;0.67;;;18.00;31.20;;;;;;8428908;28;20024;-57
2021/03/12 13:34:26;;;;;;;2.60;0.73;;;18.00;31.10;;;;;;8398566;28;20040;-57
2021/03/12 13:38:27;;;;;;;1.50;1.13;;;18.00;31.10;;;;;;8389302;28;20032;-57
2021/03/12 13:42:28;;;;;;;2.67;0.80;;;18.00;31.10;;;;;;8390826;28;20086;-58
2021/03/12 13:46:29;;;;;;;;;;;18.00;31.10;;;;;;8396071;28;20106;-58
2021/03/12 13:50:32;;;;;;;1.50;0.60;;;18.00;31.10;;;;;;8389939;28;19912;-58
2021/03/12 13:54:33;;;;;;;2.42;0.75;;;18.00;31.10;;;;;;8390618;28;20044;-58
2021/03/12 13:58:34;;;;;;;1.67;0.85;;;18.00;31.10;;;;;;8390461;28;20094;-58
2021/03/12 14:02:35;;;;;;;1.40;0.50;;;18.00;31.00;;;;;;8391090;28;20029;-58
2021/03/12 14:06:38;;;;;;;1.27;0.70;;;18.10;31.10;;;;;;8393197;28;20374;-58
2021/03/12 14:10:39;;;;;;;1.42;0.90;;;18.10;31.10;;;;;;8390671;28;20123;-58
2021/03/12 14:14:41;;;;;;;2.13;0.73;;;18.00;31.10;;;;;;8402430;28;20065;-58
2021/03/12 14:18:41;;;;;;;1.90;0.73;;;18.00;31.00;;;;;;8419146;28;20054;-57
2021/03/12 14:22:42;;;;;;;0.97;0.57;;;18.00;31.00;;;;;;8393014;28;20029;-57
2021/03/12 14:26:44;;;;;;;1.00;0.50;;;18.00;31.00;;;;;;8390003;28;20033;-58
2021/03/12 14:30:44;;;;;;;0.60;0.50;;;18.00;31.00;;;;;;8412983;28;20044;-57
2021/03/12 14:34:45;;;;;;;0.80;0.60;;;18.10;31.00;;;;;;8419255;28;20041;-57
2021/03/12 14:38:46;;;;;;;0.88;0.70;;;18.10;31.00;;;;;;8400240;28;20039;-58
2021/03/12 14:42:47;;;;;;;2.17;0.73;;;18.00;30.90;;;;;;8427278;28;20385;-58
2021/03/12 14:46:47;;;;;;;0.83;0.60;;;18.10;31.00;;;;;;8405536;28;20051;-58
2021/03/12 14:50:48;;;;;;;1.70;0.70;;;18.10;30.90;;;;;;8395665;28;20086;-58
2021/03/12 14:54:48;;;;;;;1.60;0.77;;;18.00;30.90;;;;;;8396501;28;20068;-57
2021/03/12 14:58:49;;;;;;;2.43;0.70;;;18.10;31.00;;;;;;8431635;27;20039;-58
2021/03/12 15:02:50;;;;;;;1.47;0.67;;;18.10;30.90;;;;;;8403167;28;20115;-57
2021/03/12 15:06:51;;;;;;;1.63;0.73;;;18.10;30.90;;;;;;8410721;28;20327;-58
2021/03/12 15:10:52;;;;;;;1.60;0.83;;;18.10;31.00;;;;;;8421451;28;20304;-58
2021/03/12 15:14:52;;;;;;;2.20;0.80;;;18.10;30.90;;;;;;8399414;28;20086;-58
2021/03/12 15:18:53;;;;;;;2.20;0.87;;;18.10;31.00;;;;;;8394918;28;20442;-58
2021/03/12 15:22:53;;;;;;;2.37;0.73;;;18.10;31.00;;;;;;8393154;28;20028;-58
2021/03/12 15:26:54;;;;;;;1.83;0.97;;;18.10;30.90;;;;;;8394649;28;20025;-58
2021/03/12 15:30:54;;;;;;;1.47;1.07;;;18.10;30.90;;;;;;8399185;28;20119;-57
2021/03/12 15:34:55;;;;;;;0.73;0.47;;;18.10;30.90;;;;;;8385616;28;20044;-57
2021/03/12 15:38:55;;;;;;;0.47;0.47;;;18.10;30.90;;;;;;8393433;28;20029;-58
2021/03/12 15:42:56;;;;;;;1.07;0.63;;;18.10;31.00;;;;;;8393695;28;20036;-58
2021/03/12 15:47:01;;;;;;;1.23;0.63;;;18.10;30.90;;;;;;8388476;28;20399;-58
2021/03/12 15:51:01;;;;;;;1.77;0.80;;;18.10;31.00;;;;;;8369448;28;20431;-58
2021/03/12 15:55:03;;;;;;;1.87;0.70;;;18.10;30.90;;;;;;8351982;28;20048;-57
2021/03/12 15:59:04;;;;;;;1.33;0.70;;;18.10;31.00;;;;;;8358905;28;20036;-57
2021/03/12 16:03:05;;;;;;;0.80;0.60;;;18.10;30.90;;;;;;8378762;28;20580;-58
2021/03/12 16:07:05;;;;;;;1.70;0.67;;;18.10;30.90;;;;;;8369817;28;20405;-58
2021/03/12 16:11:06;;;;;;;0.73;0.53;;;18.10;30.90;;;;;;8375369;28;20036;-58
2021/03/12 16:15:09;;;;;;;1.10;0.60;;;18.00;30.70;;;;;;8373065;28;20037;-58
2021/03/12 16:19:09;;;;;;;1.42;0.70;;;18.10;30.80;;;;;;8364106;28;20124;-57
2021/03/12 16:23:10;;;;;;;0.73;0.47;;;18.10;30.80;;;;;;8369033;28;20040;-58
2021/03/12 16:27:11;;;;;;;0.83;0.67;;;18.00;30.80;;;;;;8378908;28;20115;-57
2021/03/12 16:31:12;;;;;;;1.85;0.60;;;18.00;30.80;;;;;;8372438;28;20402;-57
2021/03/12 16:35:13;;;;;;;3.03;0.83;;;18.00;30.90;;;;;;8384660;28;20040;-57
2021/03/12 16:39:13;;;;;;;2.65;0.70;;;18.00;30.90;;;;;;8369833;28;20028;-57
2021/03/12 16:43:14;;;;;;;1.33;0.60;;;18.00;30.80;;;;;;8372525;28;20029;-54
2021/03/12 16:47:14;;;;;;;1.10;0.80;;;18.00;30.90;;;;;;8383101;28;20028;-54
2021/03/12 16:51:15;;;;;;;0.80;0.60;;;18.00;30.90;;;;;;8380059;28;20033;-55
2021/03/12 16:55:16;;;;;;;1.47;0.63;;;18.00;30.80;;;;;;8378810;28;20060;-55
2021/03/12 16:59:17;;;;;;;0.80;0.50;;;18.00;30.80;;;;;;8380742;28;20078;-56
2021/03/12 17:03:17;;;;;;;1.70;0.73;;;18.00;30.80;;;;;;8390848;27;20624;-55
2021/03/12 17:07:18;;;;;;;2.00;0.80;;;18.00;30.70;;;;;;8381193;28;20037;-56
2021/03/12 17:11:19;;;;;;;1.60;0.90;;;18.00;30.80;;;;;;8370687;28;20374;-57
2021/03/12 17:15:19;;;;;;;1.27;0.70;;;18.00;30.80;;;;;;8367748;28;20139;-58
2021/03/12 17:19:20;;;;;;;1.07;0.50;;;17.90;30.80;;;;;;8384619;28;20071;-57
2021/03/12 17:23:21;;;;;;;1.43;0.90;;;17.90;30.90;;;;;;8371186;28;20040;-57
2021/03/12 17:27:21;;;;;;;1.40;0.77;;;17.90;30.90;;;;;;8373164;28;20037;-57
2021/03/12 17:31:22;;;;;;;0.60;0.60;;;17.90;30.90;;;;;;8373959;28;20025;-57
2021/03/12 17:35:22;;;;;;;2.63;0.80;;;17.90;30.90;;;;;;8393799;28;20493;-57
2021/03/12 17:39:23;;;;;;;1.33;0.70;;;17.90;30.90;;;;;;8390879;28;20043;-58
2021/03/12 17:43:24;;;;;;;1.70;0.50;;;17.90;30.90;;;;;;8391498;28;20148;-57
2021/03/12 17:47:25;;;;;;;0.87;0.70;;;17.90;30.80;;;;;;8389271;28;20270;-58
2021/03/12 17:51:25;;;;;;;2.50;0.63;;;17.90;30.90;;;;;;8393168;28;20037;-58
2021/03/12 17:55:26;;;;;;;1.87;0.70;;;17.90;30.90;;;;;;8392881;28;20064;-58
2021/03/12 17:59:27;;;;;;;0.82;0.65;;;17.90;30.90;;;;;;8389409;28;20485;-58
2021/03/12 18:03:28;;;;;;;1.83;0.93;;;17.90;30.90;;;;;;8392609;28;20059;-58
2021/03/12 18:07:28;;;;;;;1.23;0.70;;;17.90;30.90;;;;;;8397654;28;20123;-58
2021/03/12 18:11:30;;;;;;;1.70;0.80;;;17.90;31.00;;;;;;8400104;28;20034;-56
2021/03/12 18:15:31;;;;;;;2.15;0.82;;;17.90;31.00;;;;;;8396814;28;20059;-57
2021/03/12 18:19:32;;;;;;;0.80;0.80;;;17.90;31.00;;;;;;8396436;28;20024;-57
2021/03/12 18:23:34;;;;;;;1.50;0.70;;;17.80;30.90;;;;;;8394790;28;20067;-57
2021/03/12 18:27:34;;;;;;;1.77;1.08;;;17.80;31.00;;;;;;8400741;28;20024;-57
2021/03/12 18:31:35;;;;;;;1.23;0.80;;;17.80;31.00;;;;;;8396132;28;20072;-57
2021/03/12 18:35:36;;;;;;;1.50;0.80;;;17.80;31.00;;;;;;8415082;28;20093;-56
2021/03/12 18:39:37;;;;;;;1.17;1.00;;;17.80;31.00;;;;;;8417843;28;20055;-56
2021/03/12 18:43:38;;;;;;;1.50;0.80;;;17.80;30.90;;;;;;8396394;28;20465;-56
2021/03/12 18:47:38;;;;;;;1.67;0.90;;;17.80;31.00;;;;;;8398699;28;20036;-56
2021/03/12 18:51:39;;;;;;;2.83;0.90;;;17.80;30.90;;;;;;8395789;28;20125;-56
2021/03/12 18:55:40;;;;;;;1.85;0.80;;;17.80;31.00;;;;;;8393694;28;20131;-50
2021/03/12 18:59:41;;;;;;;1.03;0.80;;;17.80;31.00;;;;;;8395863;28;20394;-55
2021/03/12 19:03:41;;;;;;;0.93;0.77;;;17.80;31.00;;;;;;8399830;28;20285;-57
2021/03/12 19:07:42;;;;;;;1.87;0.70;;;17.80;31.00;;;;;;8393556;28;20044;-56
2021/03/12 19:11:44;;;;;;;2.20;0.70;;;17.80;31.00;;;;;;8395398;28;20408;-57
2021/03/12 19:15:45;;;;;;;1.38;0.70;;;17.80;31.00;;;;;;8393368;28;20048;-56
2021/03/12 19:19:45;;;;;;;1.90;0.77;;;17.80;31.00;;;;;;8397849;28;20043;-56
2021/03/12 19:23:46;;;;;;;1.57;1.17;;;17.80;31.00;;;;;;8395087;28;20535;-56
2021/03/12 19:27:47;;;;;;;1.67;0.70;;;17.80;30.90;;;;;;8416595;28;20028;-56
2021/03/12 19:31:47;;;;;;;1.45;0.98;;;17.80;31.40;;;;;;8413134;28;20033;-56
2021/03/12 19:35:48;;;;;;;1.33;0.83;;;17.80;31.00;;;;;;8394648;28;20093;-57
2021/03/12 19:39:48;;;;;;;2.00;0.93;;;17.80;31.00;;;;;;8398769;28;20033;-56
2021/03/12 19:43:49;;;;;;;0.77;0.70;;;17.80;31.00;;;;;;8392214;28;20028;-56
2021/03/12 19:47:51;;;;;;;1.03;0.60;;;17.80;31.00;;;;;;8394026;28;20035;-56
2021/03/12 19:51:54;;;;;;;1.60;0.85;;;17.80;31.00;;;;;;8394080;28;20092;-56
2021/03/12 19:55:54;;;;;;;1.77;0.80;;;17.70;31.00;;;;;;8396900;28;20102;-56
2021/03/12 19:59:55;;;;;;;1.37;0.90;;;17.70;31.00;;;;;;8394270;28;20086;-56
2021/03/12 20:03:55;;;;;;;2.47;0.90;;;17.70;31.10;;;;;;8393651;28;20085;-57
2021/03/12 20:07:56;;;;;;;1.53;0.90;;;17.70;31.60;;;;;;8392184;28;20021;-57
2021/03/12 20:11:58;;;;;;;1.93;0.87;;;17.70;31.00;;;;;;8393450;28;20033;-60
2021/03/12 20:15:59;;;;;;;1.38;0.90;;;17.70;31.10;;;;;;8397770;28;20051;-57
2021/03/12 20:19:59;;;;;;;1.17;0.57;;;17.80;31.10;;;;;;8415606;28;20520;-57
2021/03/12 20:24:00;;;;;;;2.50;0.90;;;17.70;31.00;;;;;;8411256;28;20036;-57
2021/03/12 20:28:00;;;;;;;1.90;1.00;;;17.70;31.20;;;;;;8392409;28;20505;-56
2021/03/12 20:32:01;;;;;;;1.10;0.90;;;17.70;31.10;;;;;;8395454;28;20418;-56
2021/03/12 20:36:02;;;;;;;2.60;1.00;;;17.70;31.20;;;;;;8392390;28;20049;-57
2021/03/12 20:40:04;;;;;;;;;;;17.70;31.10;;;;;;8392759;28;20024;-56
2021/03/12 20:44:05;;;;;;;0.98;0.75;;;17.70;31.10;;;;;;8390689;28;19916;-57
2021/03/12 20:48:05;;;;;;;1.03;0.90;;;17.70;31.20;;;;;;8396794;28;20081;-56
2021/03/12 20:52:07;;;;;;;1.10;0.67;;;17.70;31.20;;;;;;8391795;28;20037;-57
2021/03/12 20:56:08;;;;;;;1.33;0.80;;;17.70;31.10;;;;;;8390757;28;20465;-56
2021/03/12 21:00:20;;;;;;;1.63;0.60;;;17.70;31.10;;;;;;8391650;28;20028;-57
2021/03/12 21:04:20;;;;;;;1.75;0.80;;;17.70;31.80;;;;;;8391610;28;20263;-57